createdAt,value
2023-04-28T00:00:52.824Z,63.8
2023-04-28T00:04:59.941Z,67.1
2023-04-28T00:07:01.884Z,68.4
2023-04-28T00:09:03.898Z,70.5
2023-04-28T00:15:09.891Z,76.8
2023-04-28T00:17:11.907Z,77.6
2023-04-28T00:19:16.967Z,78.6
2023-04-28T00:23:20.960Z,78.7
2023-04-28T00:25:22.968Z,78.9
2023-04-28T00:27:24.966Z,79.1
2023-04-28T00:29:26.957Z,79.3
2023-04-28T00:31:29.015Z,80.6
2023-04-28T00:33:34.014Z,85
2023-04-28T00:37:38.023Z,86.5
2023-04-28T00:38:40.537Z,87.7
2023-04-28T00:40:42.524Z,89.1
2023-04-28T00:42:44.541Z,89.2
2023-04-28T00:44:46.533Z,89.3
2023-04-28T00:46:51.585Z,89
2023-04-28T00:48:53.591Z,89.3
2023-04-28T00:50:55.583Z,88.8
2023-04-28T00:52:57.589Z,89
2023-04-28T00:54:59.599Z,89.9
2023-04-28T00:57:01.587Z,91.5
2023-04-28T00:59:03.583Z,91.6
2023-04-28T01:01:08.655Z,88.4
2023-04-28T01:05:12.644Z,87.8
2023-04-28T01:07:14.644Z,88
2023-04-28T01:09:16.661Z,88.1
2023-04-28T01:19:29.650Z,96
2023-04-28T01:23:33.631Z,97.5
2023-04-28T01:27:37.645Z,98.7
2023-04-28T01:29:42.658Z,99.5
2023-04-28T01:31:44.662Z,99.5
2023-04-28T01:34:49.161Z,99.9
2023-04-28T01:38:53.128Z,99.9
2023-04-28T01:40:55.114Z,99.9
2023-04-28T01:45:02.152Z,99.9
2023-04-28T01:47:04.131Z,99.9
2023-04-28T01:49:06.115Z,99.9
2023-04-28T01:51:08.106Z,99.9
2023-04-28T01:53:10.098Z,99.9
2023-04-28T01:55:12.066Z,99.9
2023-04-28T01:57:17.703Z,99.9
2023-04-28T01:59:19.088Z,99.9
2023-04-28T02:01:21.090Z,99.9
2023-04-28T02:03:23.177Z,99.9
2023-04-28T02:05:25.031Z,99.9
2023-04-28T02:07:27.043Z,99.9
2023-04-28T02:09:28.994Z,99.9
2023-04-28T02:11:34.059Z,99.9
2023-04-28T02:13:36.021Z,99.9
2023-04-28T02:29:54.939Z,99.9
2023-04-28T02:34:19.713Z,99.9
2023-04-28T02:42:30.744Z,99.9
2023-04-28T02:54:45.694Z,99.9
2023-04-28T02:56:47.664Z,99.9
2023-04-28T03:02:53.823Z,99.9
2023-04-28T03:04:55.735Z,99.9
2023-04-28T03:07:00.655Z,99.9
2023-04-28T03:19:12.601Z,99.9
2023-04-28T03:26:24.092Z,99.9
2023-04-28T03:30:28.065Z,99.9
2023-04-28T03:32:30.113Z,99.9
2023-04-28T03:34:35.090Z,99.9
2023-04-28T03:36:37.106Z,99.9
2023-04-28T03:38:39.068Z,99.9
2023-04-28T03:42:43.034Z,99.9
2023-04-28T03:46:47.005Z,99.9
2023-04-28T03:48:52.043Z,99.9
2023-04-28T03:50:54.036Z,99.9
2023-04-28T03:52:56.041Z,99.9
2023-04-28T03:54:58.014Z,99.9
2023-04-28T03:57:00.018Z,99.9
2023-04-28T03:59:01.984Z,99.9
2023-04-28T04:05:11.146Z,99.9
2023-04-28T04:07:13.027Z,99.9
2023-04-28T04:09:14.999Z,99.9
2023-04-28T04:11:17.010Z,99.9
2023-04-28T04:13:20.514Z,99.9
2023-04-28T04:15:22.449Z,99.9
2023-04-28T04:17:27.508Z,99.9
2023-04-28T04:19:29.475Z,99.9
2023-04-28T04:21:31.492Z,99.9
2023-04-28T04:26:38.040Z,99.9
2023-04-28T04:34:49.043Z,99.9
2023-04-28T04:38:54.502Z,99.9
2023-04-28T04:40:55.013Z,99.9
2023-04-28T04:42:57.012Z,99.9
2023-04-28T04:45:02.081Z,99.9
2023-04-28T04:47:04.020Z,99.9
2023-04-28T04:49:06.049Z,99.9
2023-04-28T04:51:08.017Z,99.9
2023-04-28T04:53:13.897Z,99.9
2023-04-28T04:55:11.990Z,99.9
2023-04-28T04:57:13.999Z,99.9
2023-04-28T04:59:19.023Z,99.9
2023-04-28T05:01:21.068Z,99.9
2023-04-28T05:03:23.083Z,99.9
2023-04-28T05:05:25.101Z,99.9
2023-04-28T05:07:27.013Z,99.9
2023-04-28T05:09:29.007Z,99.9
2023-04-28T05:11:30.981Z,99.9
2023-04-28T05:13:36.064Z,99.9
2023-04-28T05:15:38.018Z,99.9
2023-04-28T05:20:44.536Z,99.9
2023-04-28T05:24:48.486Z,99.9
2023-04-28T05:26:53.540Z,99.9
2023-04-28T05:30:57.518Z,99.9
2023-04-28T05:32:59.549Z,99.9
2023-04-28T05:35:01.511Z,99.9
2023-04-28T05:37:03.465Z,99.9
2023-04-28T05:39:05.474Z,99.9
2023-04-28T05:41:10.498Z,99.9
2023-04-28T05:49:18.442Z,99.9
2023-04-28T05:53:22.442Z,99.9
2023-04-28T05:55:27.513Z,99.9
2023-04-28T05:59:31.467Z,99.9
2023-04-28T06:01:33.470Z,99.9
2023-04-28T06:03:35.633Z,99.9
2023-04-28T06:05:37.689Z,99.9
2023-04-28T06:11:46.464Z,99.9
2023-04-28T06:20:09.267Z,99.9
2023-04-28T06:28:20.243Z,99.9
2023-04-28T06:38:33.328Z,99.9
2023-04-28T06:40:35.319Z,99.9
2023-04-28T06:44:39.300Z,99.9
2023-04-28T06:46:41.356Z,99.9
2023-04-28T06:50:48.325Z,99.9
2023-04-28T06:52:50.512Z,99.9
2023-04-28T06:54:52.307Z,99.9
2023-04-28T06:56:54.310Z,99.9
2023-04-28T06:58:56.302Z,99.9
2023-04-28T07:00:58.310Z,99.9
2023-04-28T07:03:00.477Z,99.9
2023-04-28T07:05:05.319Z,99.9
2023-04-28T07:09:09.315Z,99.9
2023-04-28T07:10:11.833Z,99.9
2023-04-28T07:14:16.108Z,99.9
2023-04-28T07:16:17.868Z,99.9
2023-04-28T07:20:24.865Z,99.9
2023-04-28T07:24:28.794Z,99.9
2023-04-28T07:26:30.815Z,99.9
2023-04-28T07:28:32.784Z,99.9
2023-04-28T07:46:56.925Z,99.9
2023-04-28T07:57:06.891Z,99.9
2023-04-28T07:59:08.892Z,99.9
2023-04-28T08:01:13.951Z,99.9
2023-04-28T08:05:18.265Z,99.9
2023-04-28T08:06:20.527Z,99.9
2023-04-28T08:08:22.481Z,99.9
2023-04-28T08:10:24.472Z,99.9
2023-04-28T08:12:26.476Z,99.9
2023-04-28T08:18:35.571Z,99.9
2023-04-28T08:24:41.522Z,99.9
2023-04-28T08:26:43.489Z,99.9
2023-04-28T08:49:11.614Z,99.9
2023-04-28T08:59:24.621Z,99.9
2023-04-28T09:02:29.275Z,99.9
2023-04-28T09:04:31.238Z,99.9
2023-04-28T09:06:33.141Z,99.9
2023-04-28T09:10:40.191Z,99.9
2023-04-28T09:12:42.184Z,99.9
2023-04-28T09:14:44.153Z,99.9
2023-04-28T09:16:46.297Z,99.9
2023-04-28T09:18:48.145Z,99.9
2023-04-28T09:20:50.169Z,99.9
2023-04-28T09:22:52.221Z,99.9
2023-04-28T09:24:57.234Z,99.9
2023-04-28T09:26:59.228Z,99.9
2023-04-28T09:29:01.205Z,99.9
2023-04-28T09:31:03.219Z,99.9
2023-04-28T09:39:14.254Z,99.9
2023-04-28T09:41:16.245Z,99.9
2023-04-28T09:45:20.223Z,99.9
2023-04-28T09:49:24.206Z,99.9
2023-04-28T09:51:26.183Z,99.9
2023-04-28T09:53:31.265Z,99.9
2023-04-28T09:55:33.236Z,99.9
2023-04-28T09:57:35.263Z,99.9
2023-04-28T09:59:58.000Z,99.9
2023-04-28T10:02:04.604Z,99.9
2023-04-28T10:04:03.586Z,99.9
2023-04-28T10:06:08.550Z,99.9
2023-04-28T10:08:10.481Z,99.9
2023-04-28T10:10:12.505Z,99.9
2023-04-28T10:12:14.460Z,99.9
2023-04-28T10:14:16.484Z,99.9
2023-04-28T10:16:18.500Z,99.9
2023-04-28T10:20:25.552Z,99.9
2023-04-28T10:24:29.491Z,99.9
2023-04-28T10:26:31.473Z,99.9
2023-04-28T10:28:33.496Z,99.9
2023-04-28T10:30:35.487Z,99.9
2023-04-28T10:32:37.499Z,99.9
2023-04-28T10:34:42.532Z,99.9
2023-04-28T10:36:44.535Z,99.9
2023-04-28T10:42:50.510Z,99.9
2023-04-28T10:44:52.512Z,99.9
2023-04-28T10:46:54.596Z,99.9
2023-04-28T10:48:59.571Z,99.9
2023-04-28T10:51:01.577Z,99.9
2023-04-28T10:53:03.546Z,99.9
2023-04-28T10:54:06.093Z,99.9
2023-04-28T11:12:27.089Z,99.9
2023-04-28T11:14:29.084Z,99.9
2023-04-28T11:16:34.160Z,99.9
2023-04-28T11:18:36.108Z,99.9
2023-04-28T11:20:38.122Z,99.9
2023-04-28T11:22:40.104Z,99.9
2023-04-28T11:26:44.137Z,99.9
2023-04-28T11:28:46.097Z,99.9
2023-04-28T11:30:52.570Z,99.9
2023-04-28T11:32:53.226Z,99.9
2023-04-28T11:34:55.138Z,99.9
2023-04-28T11:36:57.149Z,99.9
2023-04-28T11:38:59.113Z,99.9
2023-04-28T11:41:01.112Z,99.9
2023-04-28T11:43:03.112Z,99.9
2023-04-28T11:45:08.164Z,99.9
2023-04-28T11:47:10.187Z,99.9
2023-04-28T11:49:12.171Z,99.9
2023-04-28T11:50:14.717Z,99.9
2023-04-28T12:04:31.719Z,99.9
2023-04-28T12:14:44.703Z,99.9
2023-04-28T12:16:46.679Z,99.9
2023-04-28T12:20:50.644Z,99.9
2023-04-28T12:22:52.657Z,99.9
2023-04-28T12:24:54.626Z,99.9
2023-04-28T12:29:01.696Z,99.9
2023-04-28T12:31:03.761Z,99.9
2023-04-28T12:33:05.715Z,99.9
2023-04-28T12:35:07.639Z,99.9
2023-04-28T12:37:09.669Z,99.9
2023-04-28T12:39:11.623Z,99.9
2023-04-28T12:41:16.667Z,99.9
2023-04-28T12:45:20.727Z,99.9
2023-04-28T12:46:23.178Z,99.9
2023-04-28T12:48:25.304Z,99.9
2023-04-28T12:50:27.136Z,99.9
2023-04-28T12:54:34.190Z,99.9
2023-04-28T12:56:36.152Z,99.9
2023-04-28T13:06:46.112Z,99.9
2023-04-28T13:08:51.140Z,99.9
2023-04-28T13:10:53.122Z,99.9
2023-04-28T13:27:12.083Z,99.9
2023-04-28T13:29:14.061Z,99.9
2023-04-28T13:31:16.108Z,99.9
2023-04-28T13:33:18.060Z,99.9
2023-04-28T13:35:20.013Z,99.9
2023-04-28T13:37:25.071Z,99.9
2023-04-28T13:39:27.051Z,99.9
2023-04-28T13:41:29.045Z,99.9
2023-04-28T13:43:51.836Z,99.9
2023-04-28T13:45:53.831Z,99.9
2023-04-28T13:47:55.859Z,99.9
2023-04-28T13:50:00.851Z,99.9
2023-04-28T13:52:02.846Z,99.9
2023-04-28T13:54:04.814Z,99.9
2023-04-28T14:00:10.773Z,99.9
2023-04-28T14:02:12.829Z,99.9
2023-04-28T14:04:18.019Z,99.9
2023-04-28T14:06:19.787Z,99.9
2023-04-28T14:08:21.788Z,99.9
2023-04-28T14:10:23.774Z,99.9
2023-04-28T14:12:25.768Z,99.9
2023-04-28T14:14:27.731Z,99.9
2023-04-28T14:16:29.759Z,99.9
2023-04-28T14:18:34.773Z,99.9
2023-04-28T14:20:36.778Z,99.9
2023-04-28T14:22:38.749Z,99.9
2023-04-28T14:24:40.727Z,99.9
2023-04-28T14:26:42.724Z,99.9
2023-04-28T14:30:46.749Z,99.9
2023-04-28T14:32:51.754Z,99.9
2023-04-28T14:34:53.748Z,99.9
2023-04-28T14:36:55.716Z,99.9
2023-04-28T14:37:58.248Z,99.9
2023-04-28T14:40:00.323Z,99.9
2023-04-28T14:42:02.238Z,99.9
2023-04-28T14:44:04.235Z,99.9
2023-04-28T14:46:09.333Z,99.9
2023-04-28T14:48:11.257Z,99.9
2023-04-28T14:50:14.199Z,99.9
2023-04-28T14:52:15.207Z,99.9
2023-04-28T14:54:17.217Z,99.9
2023-04-28T14:56:19.775Z,99.9
2023-04-28T15:00:26.203Z,99.9
2023-04-28T15:02:28.251Z,99.9
2023-04-28T15:04:30.315Z,99.9
2023-04-28T15:08:34.144Z,99.9
2023-04-28T15:10:36.145Z,99.9
2023-04-28T15:12:38.131Z,99.9
2023-04-28T15:14:43.180Z,99.9
2023-04-28T15:16:45.186Z,99.9
2023-04-28T15:18:47.153Z,99.9
2023-04-28T15:22:51.153Z,99.9
2023-04-28T15:24:53.136Z,99.9
2023-04-28T15:33:04.234Z,99.9
2023-04-28T15:34:06.705Z,99.9
2023-04-28T15:40:12.682Z,99.9
2023-04-28T15:44:19.727Z,99.9
2023-04-28T15:52:27.674Z,99.9
2023-04-28T15:54:29.688Z,99.9
2023-04-28T15:58:38.221Z,99.9
2023-04-28T16:00:40.202Z,99.9
2023-04-28T16:02:42.306Z,99.9
2023-04-28T16:06:46.166Z,99.9
2023-04-28T16:10:53.206Z,99.9
2023-04-28T16:12:55.204Z,99.9
2023-04-28T16:14:57.184Z,99.9
2023-04-28T16:16:59.247Z,99.9
2023-04-28T16:21:03.157Z,99.9
2023-04-28T16:23:05.143Z,99.9
2023-04-28T16:25:10.201Z,99.9
2023-04-28T16:27:12.392Z,99.9
2023-04-28T16:29:14.659Z,99.9
2023-04-28T16:30:16.711Z,99.9
2023-04-28T16:34:20.704Z,99.9
2023-04-28T16:36:22.686Z,99.9
2023-04-28T16:38:27.745Z,99.9
2023-04-28T16:40:29.730Z,99.9
2023-04-28T16:42:31.733Z,99.9
2023-04-28T16:44:33.751Z,99.9
2023-04-28T16:46:35.722Z,99.9
2023-04-28T16:52:44.780Z,99.9
2023-04-28T16:54:46.730Z,99.9
2023-04-28T16:56:48.720Z,99.9
2023-04-28T16:58:50.713Z,99.9
2023-04-28T17:02:54.775Z,99.9
2023-04-28T17:15:09.723Z,99.9
2023-04-28T17:19:13.737Z,99.9
2023-04-28T17:25:22.785Z,99.9
2023-04-28T17:27:45.556Z,99.9
2023-04-28T17:29:47.554Z,99.9
2023-04-28T17:40:00.616Z,99.9
2023-04-28T17:42:02.592Z,99.9
2023-04-28T17:48:11.685Z,99.9
2023-04-28T17:50:13.590Z,99.9
2023-04-28T17:52:15.671Z,99.9
2023-04-28T17:54:17.588Z,99.9
2023-04-28T17:56:19.589Z,99.9
2023-04-28T17:58:21.592Z,99.9
2023-04-28T18:00:23.560Z,99.9
2023-04-28T18:02:28.726Z,99.9
2023-04-28T18:04:30.641Z,99.9
2023-04-28T18:06:32.635Z,99.9
2023-04-28T18:08:34.601Z,99.9
2023-04-28T18:10:36.591Z,99.9
2023-04-28T18:12:38.623Z,99.9
2023-04-28T18:14:40.580Z,99.9
2023-04-28T18:16:45.729Z,99.9
2023-04-28T18:18:47.642Z,99.9
2023-04-28T18:20:49.634Z,99.9
2023-04-28T18:30:03.184Z,99.9
2023-04-28T18:32:05.205Z,99.9
2023-04-28T18:34:07.149Z,99.9
2023-04-28T18:38:11.126Z,99.9
2023-04-28T18:40:13.135Z,99.9
2023-04-28T18:42:15.129Z,99.9
2023-04-28T18:44:20.170Z,99.9
2023-04-28T18:46:22.243Z,99.9
2023-04-28T18:48:24.136Z,99.9
2023-04-28T18:54:31.173Z,99.9
2023-04-28T18:58:37.136Z,99.9
2023-04-28T19:02:41.254Z,99.9
2023-04-28T19:04:43.202Z,99.9
2023-04-28T19:06:45.102Z,99.9
2023-04-28T19:08:47.109Z,99.9
2023-04-28T19:10:49.130Z,99.9
2023-04-28T19:12:54.151Z,99.9
2023-04-28T19:14:56.116Z,99.9
2023-04-28T19:16:58.175Z,99.9
2023-04-28T19:18:00.705Z,99.9
2023-04-28T19:34:19.651Z,99.9
2023-04-28T19:38:23.649Z,99.9
2023-04-28T19:40:28.684Z,99.9
2023-04-28T19:42:30.704Z,99.9
2023-04-28T19:44:32.668Z,99.9
2023-04-28T19:48:36.697Z,99.9
2023-04-28T19:50:38.648Z,99.9
2023-04-28T19:52:40.634Z,99.9
2023-04-28T19:56:47.703Z,99.9
2023-04-28T19:58:49.675Z,99.9
2023-04-28T20:02:53.798Z,99.9
2023-04-28T20:06:57.673Z,99.9
2023-04-28T20:11:04.709Z,99.9
2023-04-28T20:13:06.718Z,99.9
2023-04-28T20:14:09.232Z,99.9
2023-04-28T20:16:11.243Z,99.9
2023-04-28T20:22:20.338Z,99.9
2023-04-28T20:24:22.313Z,99.9
2023-04-28T20:26:24.323Z,99.9
2023-04-28T20:28:26.301Z,99.9
2023-04-28T20:30:28.317Z,99.9
2023-04-28T20:32:30.305Z,99.9
2023-04-28T20:34:32.307Z,99.9
2023-04-28T20:38:39.394Z,99.9
2023-04-28T20:40:41.325Z,99.9
2023-04-28T20:42:43.330Z,99.9
2023-04-28T20:46:47.422Z,99.9
2023-04-28T21:09:16.032Z,99.9
2023-04-28T21:11:32.703Z,99.9
2023-04-28T21:13:34.679Z,99.9
2023-04-28T21:21:45.705Z,99.9
2023-04-28T21:25:49.686Z,99.9
2023-04-28T21:36:02.692Z,99.9
2023-04-28T21:38:04.684Z,99.9
2023-04-28T21:40:06.660Z,99.9
2023-04-28T21:42:08.683Z,99.9
2023-04-28T21:44:10.635Z,99.9
2023-04-28T21:56:27.124Z,99.9
2023-04-28T21:58:29.120Z,99.9
2023-04-28T22:02:36.276Z,99.9
2023-04-28T22:04:38.259Z,99.9
2023-04-28T22:05:40.675Z,99.9
2023-04-28T22:07:42.657Z,99.9
2023-04-28T22:09:44.635Z,99.9
2023-04-28T22:11:46.623Z,99.9
2023-04-28T22:13:51.655Z,99.9
2023-04-28T22:19:57.612Z,99.9
2023-04-28T22:24:01.601Z,99.9
2023-04-28T22:30:10.581Z,99.9
2023-04-28T22:32:12.575Z,99.9
2023-04-28T22:34:14.575Z,99.9
2023-04-28T22:38:18.542Z,99.9
2023-04-28T22:40:20.502Z,99.9
2023-04-28T22:42:25.584Z,99.9
2023-04-28T22:44:27.600Z,99.9
2023-04-28T22:46:29.567Z,99.9
2023-04-28T22:48:31.547Z,99.9
2023-04-28T22:50:33.506Z,99.9
2023-04-28T22:52:35.521Z,99.9
2023-04-28T22:54:37.498Z,99.9
2023-04-28T22:56:42.516Z,99.9
2023-04-28T22:58:44.509Z,99.9
2023-04-28T23:00:46.491Z,99.9
2023-04-28T23:01:49.638Z,99.9
2023-04-28T23:05:53.531Z,99.9
2023-04-28T23:07:55.552Z,99.9
2023-04-28T23:10:00.577Z,99.9
2023-04-28T23:12:02.577Z,99.9
2023-04-28T23:14:04.531Z,99.9
2023-04-28T23:16:06.528Z,99.9
2023-04-28T23:20:10.477Z,99.9
2023-04-28T23:24:17.506Z,99.9
2023-04-28T23:26:19.480Z,99.9
2023-04-28T23:32:25.504Z,99.9
2023-04-28T23:34:27.429Z,99.9
2023-04-28T23:36:29.411Z,99.9
2023-04-28T23:38:34.445Z,99.9
2023-04-28T23:40:36.425Z,99.9
2023-04-28T23:46:42.386Z,99.9
2023-04-28T23:50:46.358Z,99.9
2023-04-28T23:57:57.889Z,99.9
2023-04-28T23:59:59.906Z,99.9
